createdAt,value
2023-05-09T00:00:48.436Z,22.52
2023-05-09T00:03:37.126Z,19.75
2023-05-09T00:06:27.034Z,20.55
2023-05-09T00:09:15.775Z,19.55
2023-05-09T00:12:05.127Z,21.40
2023-05-09T00:14:54.454Z,22.50
2023-05-09T00:17:45.904Z,25.48
2023-05-09T00:20:35.129Z,25.88
2023-05-09T00:23:24.110Z,32.72
2023-05-09T00:26:12.907Z,29.35
2023-05-09T00:29:04.215Z,22.00
2023-05-09T00:31:53.146Z,24.98
2023-05-09T00:34:43.424Z,25.23
2023-05-09T00:37:33.172Z,25.73
2023-05-09T00:40:22.109Z,24.50
2023-05-09T00:43:11.024Z,27.05
2023-05-09T00:45:59.956Z,24.63
2023-05-09T00:48:48.718Z,21.63
2023-05-09T00:51:40.441Z,25.20
2023-05-09T00:54:29.732Z,26.05
2023-05-09T00:57:18.561Z,24.83
2023-05-09T01:00:13.255Z,27.52
2023-05-09T01:03:02.568Z,25.20
2023-05-09T01:05:57.830Z,25.40
2023-05-09T01:08:53.746Z,21.50
2023-05-09T01:11:47.030Z,24.42
2023-05-09T01:14:44.218Z,21.90
2023-05-09T01:17:42.411Z,23.02
2023-05-09T01:20:34.998Z,25.08
2023-05-09T01:23:56.144Z,25.75
2023-05-09T01:26:57.161Z,24.13
2023-05-09T01:29:49.780Z,24.52
2023-05-09T01:32:40.798Z,25.33
2023-05-09T01:35:32.580Z,21.92
2023-05-09T01:38:24.989Z,21.98
2023-05-09T01:41:16.747Z,23.88
2023-05-09T01:44:09.523Z,19.58
2023-05-09T01:47:01.408Z,21.85
2023-05-09T01:49:51.381Z,24.00
2023-05-09T01:52:43.447Z,21.48
2023-05-09T01:55:35.455Z,17.85
2023-05-09T01:58:26.226Z,21.23
2023-05-09T02:01:15.935Z,24.23
2023-05-09T02:04:07.640Z,23.30
2023-05-09T02:06:57.093Z,19.73
2023-05-09T02:09:47.515Z,20.63
2023-05-09T02:12:36.318Z,19.35
2023-05-09T02:15:26.042Z,20.83
2023-05-09T02:18:15.079Z,24.60
2023-05-09T02:21:05.831Z,21.42
2023-05-09T02:23:54.732Z,22.10
2023-05-09T02:26:44.148Z,24.45
2023-05-09T02:29:40.151Z,24.00
2023-05-09T02:32:33.459Z,26.67
2023-05-09T02:35:24.050Z,22.75
2023-05-09T02:38:15.011Z,24.05
2023-05-09T02:41:03.960Z,26.35
2023-05-09T02:43:52.821Z,24.50
2023-05-09T02:46:43.379Z,25.60
2023-05-09T02:49:32.826Z,26.90
2023-05-09T02:52:23.173Z,24.20
2023-05-09T02:55:13.739Z,19.45
2023-05-09T02:58:13.627Z,25.55
2023-05-09T03:01:05.238Z,27.77
2023-05-09T03:03:54.149Z,24.73
2023-05-09T03:06:44.089Z,23.42
2023-05-09T03:09:33.487Z,24.95
2023-05-09T03:12:24.306Z,20.00
2023-05-09T03:15:15.880Z,19.05
2023-05-09T03:18:07.411Z,23.95
2023-05-09T03:20:56.139Z,19.65
2023-05-09T03:23:45.009Z,21.17
2023-05-09T03:26:35.784Z,20.10
2023-05-09T03:29:26.211Z,23.45
2023-05-09T03:32:16.023Z,21.85
2023-05-09T03:35:05.284Z,21.33
2023-05-09T03:37:54.905Z,23.60
2023-05-09T03:40:43.945Z,19.95
2023-05-09T03:43:34.248Z,21.55
2023-05-09T03:46:25.601Z,22.67
2023-05-09T03:49:14.612Z,21.15
2023-05-09T03:52:05.103Z,19.65
2023-05-09T03:54:54.864Z,19.83
2023-05-09T03:57:44.352Z,20.83
2023-05-09T04:00:33.925Z,19.08
2023-05-09T04:03:32.469Z,17.35
2023-05-09T04:06:21.449Z,21.52
2023-05-09T04:09:10.501Z,20.73
2023-05-09T04:11:59.283Z,22.80
2023-05-09T04:14:49.116Z,25.83
2023-05-09T04:17:38.890Z,19.75
2023-05-09T04:20:29.735Z,18.48
2023-05-09T04:23:18.917Z,22.98
2023-05-09T04:26:09.833Z,22.30
2023-05-09T04:28:58.963Z,23.23
2023-05-09T04:31:47.977Z,23.48
2023-05-09T04:34:37.057Z,19.10
2023-05-09T04:37:34.891Z,19.90
2023-05-09T04:40:26.744Z,19.83
2023-05-09T04:43:20.208Z,19.33
2023-05-09T04:46:09.439Z,19.17
2023-05-09T04:48:59.696Z,19.77
2023-05-09T04:51:48.580Z,17.02
2023-05-09T04:54:38.986Z,18.13
2023-05-09T04:57:28.901Z,16.67
2023-05-09T05:00:19.812Z,15.52
2023-05-09T05:03:10.334Z,13.70
2023-05-09T05:05:59.173Z,16.75
2023-05-09T05:08:47.993Z,14.32
2023-05-09T05:11:38.394Z,18.88
2023-05-09T05:14:27.404Z,14.70
2023-05-09T05:17:18.552Z,20.65
2023-05-09T05:20:10.745Z,16.17
2023-05-09T05:23:04.056Z,16.58
2023-05-09T05:25:52.912Z,16.88
2023-05-09T05:28:43.161Z,17.23
2023-05-09T05:31:32.334Z,13.38
2023-05-09T05:34:21.197Z,12.40
2023-05-09T05:37:10.156Z,19.60
2023-05-09T05:39:59.261Z,12.98
2023-05-09T05:42:48.086Z,15.90
2023-05-09T05:45:38.330Z,13.45
2023-05-09T05:48:30.228Z,12.95
2023-05-09T05:51:19.664Z,14.70
2023-05-09T05:54:08.650Z,14.70
2023-05-09T05:56:58.779Z,12.63
2023-05-09T05:59:48.432Z,14.88
2023-05-09T06:02:39.804Z,11.90
2023-05-09T06:05:28.897Z,11.15
2023-05-09T06:08:17.594Z,12.13
2023-05-09T06:11:06.542Z,12.52
2023-05-09T06:13:55.652Z,13.50
2023-05-09T06:16:44.981Z,13.43
2023-05-09T06:19:35.756Z,16.55
2023-05-09T06:22:24.690Z,11.57
2023-05-09T06:25:13.726Z,14.10
2023-05-09T06:28:02.589Z,13.68
2023-05-09T06:30:51.469Z,12.35
2023-05-09T06:33:40.213Z,15.05
2023-05-09T06:36:31.148Z,13.68
2023-05-09T06:39:19.995Z,9.60
2023-05-09T06:42:08.842Z,10.15
2023-05-09T06:45:00.946Z,11.80
2023-05-09T06:47:49.856Z,10.15
2023-05-09T06:50:38.821Z,9.25
2023-05-09T06:53:29.026Z,9.52
2023-05-09T06:56:20.274Z,7.25
2023-05-09T06:59:13.294Z,8.75
2023-05-09T07:02:02.492Z,12.52
2023-05-09T07:04:51.545Z,7.55
2023-05-09T07:07:40.897Z,7.50
2023-05-09T07:10:31.270Z,7.75
2023-05-09T07:13:20.122Z,5.22
2023-05-09T07:16:09.086Z,5.53
2023-05-09T07:18:57.981Z,7.38
2023-05-09T07:21:46.891Z,4.60
2023-05-09T07:24:35.911Z,7.50
2023-05-09T07:27:26.235Z,4.50
2023-05-09T07:30:16.033Z,5.25
2023-05-09T07:33:05.330Z,4.35
2023-05-09T07:35:54.265Z,4.45
2023-05-09T07:38:43.016Z,4.75
2023-05-09T07:41:33.845Z,3.45
2023-05-09T07:44:24.386Z,6.25
2023-05-09T07:47:13.180Z,4.18
2023-05-09T07:50:02.352Z,3.42
2023-05-09T07:52:52.029Z,4.47
2023-05-09T07:55:41.036Z,3.60
2023-05-09T07:58:30.004Z,4.65
2023-05-09T08:01:20.228Z,2.78
2023-05-09T08:04:10.060Z,5.70
2023-05-09T08:07:01.246Z,6.03
2023-05-09T08:09:50.124Z,2.53
2023-05-09T08:12:38.809Z,6.47
2023-05-09T08:15:27.623Z,7.30
2023-05-09T08:18:17.722Z,3.85
2023-05-09T08:21:06.824Z,5.78
2023-05-09T08:23:55.901Z,3.95
2023-05-09T08:26:45.406Z,4.80
2023-05-09T08:29:34.127Z,4.65
2023-05-09T08:32:23.701Z,3.33
2023-05-09T08:35:14.283Z,3.97
2023-05-09T08:38:03.919Z,3.05
2023-05-09T08:40:52.836Z,5.25
2023-05-09T08:43:42.664Z,5.35
2023-05-09T08:46:40.134Z,3.60
2023-05-09T08:49:29.671Z,3.30
2023-05-09T08:52:20.048Z,7.18
2023-05-09T08:55:09.581Z,5.00
2023-05-09T08:57:59.558Z,8.02
2023-05-09T09:00:49.067Z,3.50
2023-05-09T09:03:39.570Z,4.88
2023-05-09T09:06:31.210Z,6.18
2023-05-09T09:09:22.318Z,5.93
2023-05-09T09:12:11.713Z,4.30
2023-05-09T09:15:05.397Z,2.42
2023-05-09T09:17:56.713Z,2.95
2023-05-09T09:20:49.071Z,4.75
2023-05-09T09:23:40.354Z,7.57
2023-05-09T09:26:32.097Z,4.40
2023-05-09T09:29:22.978Z,3.15
2023-05-09T09:32:11.845Z,5.70
2023-05-09T09:35:07.150Z,3.20
2023-05-09T09:38:00.244Z,3.30
2023-05-09T09:40:56.144Z,3.83
2023-05-09T09:43:47.902Z,4.30
2023-05-09T09:46:45.116Z,9.27
2023-05-09T09:49:34.031Z,3.90
2023-05-09T09:52:26.076Z,3.58
2023-05-09T09:55:14.925Z,3.60
2023-05-09T09:58:04.521Z,7.07
2023-05-09T10:01:08.227Z,6.35
2023-05-09T10:03:57.078Z,10.65
2023-05-09T10:06:54.398Z,6.55
2023-05-09T10:09:44.113Z,9.38
2023-05-09T10:12:34.694Z,7.07
2023-05-09T10:15:24.116Z,9.15
2023-05-09T10:18:19.900Z,13.77
2023-05-09T10:21:11.622Z,9.02
2023-05-09T10:24:01.854Z,5.65
2023-05-09T10:26:52.400Z,3.53
2023-05-09T10:29:46.659Z,3.78
2023-05-09T10:32:43.684Z,5.10
2023-05-09T10:35:37.719Z,2.65
2023-05-09T10:38:26.961Z,3.97
2023-05-09T10:41:17.304Z,2.65
2023-05-09T10:44:06.852Z,4.80
2023-05-09T10:46:56.441Z,4.30
2023-05-09T10:49:46.390Z,2.55
2023-05-09T10:52:56.759Z,6.95
2023-05-09T10:55:55.429Z,5.03
2023-05-09T10:58:44.179Z,4.82
2023-05-09T11:01:37.529Z,3.58
2023-05-09T11:04:26.788Z,3.13
2023-05-09T11:07:26.541Z,5.82
2023-05-09T11:10:18.658Z,9.43
2023-05-09T11:13:11.116Z,3.13
2023-05-09T11:16:13.578Z,5.82
2023-05-09T11:19:02.655Z,4.57
2023-05-09T11:22:03.207Z,5.25
2023-05-09T11:24:54.144Z,3.72
2023-05-09T11:27:44.675Z,4.10
2023-05-09T11:30:43.973Z,3.70
2023-05-09T11:33:33.690Z,2.95
2023-05-09T11:36:29.871Z,5.85
2023-05-09T11:39:26.539Z,4.22
2023-05-09T11:42:15.686Z,3.00
2023-05-09T11:45:07.553Z,3.47
2023-05-09T11:47:58.994Z,4.30
2023-05-09T11:50:49.882Z,2.15
2023-05-09T11:53:47.039Z,3.42
2023-05-09T11:56:37.308Z,4.63
2023-05-09T11:59:26.649Z,2.25
2023-05-09T12:02:16.421Z,4.97
2023-05-09T12:05:11.248Z,4.28
2023-05-09T12:08:04.925Z,2.40
2023-05-09T12:10:53.654Z,3.05
2023-05-09T12:13:49.491Z,4.90
2023-05-09T12:16:47.069Z,4.00
2023-05-09T12:19:36.788Z,4.07
2023-05-09T12:22:27.536Z,3.58
2023-05-09T12:25:16.650Z,5.72
2023-05-09T12:28:06.580Z,4.18
2023-05-09T12:30:56.381Z,3.72
2023-05-09T12:33:45.372Z,4.72
2023-05-09T12:36:37.160Z,5.30
2023-05-09T12:39:27.662Z,4.47
2023-05-09T12:42:16.452Z,3.35
2023-05-09T12:45:06.239Z,4.38
2023-05-09T12:47:55.311Z,5.35
2023-05-09T12:50:48.975Z,5.90
2023-05-09T12:53:40.523Z,3.53
2023-05-09T12:56:35.443Z,3.72
2023-05-09T12:59:25.267Z,4.22
2023-05-09T13:02:15.023Z,5.93
2023-05-09T13:05:09.050Z,3.63
2023-05-09T13:07:58.723Z,4.45
2023-05-09T13:10:47.680Z,4.68
2023-05-09T13:13:38.128Z,2.72
2023-05-09T13:16:27.106Z,4.43
2023-05-09T13:19:16.475Z,2.38
2023-05-09T13:22:05.242Z,4.47
2023-05-09T13:24:53.968Z,6.97
2023-05-09T13:27:42.726Z,3.38
2023-05-09T13:30:33.102Z,4.68
2023-05-09T13:33:26.006Z,6.65
2023-05-09T13:36:16.349Z,2.78
2023-05-09T13:39:05.331Z,3.50
2023-05-09T13:41:54.070Z,4.07
2023-05-09T13:44:43.178Z,2.90
2023-05-09T13:47:33.646Z,4.28
2023-05-09T13:50:22.839Z,3.95
2023-05-09T13:53:11.722Z,4.05
2023-05-09T13:56:00.776Z,6.45
2023-05-09T13:58:50.627Z,5.60
2023-05-09T14:01:39.488Z,4.57
2023-05-09T14:04:32.154Z,3.67
2023-05-09T14:07:21.832Z,5.32
2023-05-09T14:10:12.168Z,5.63
2023-05-09T14:13:01.246Z,4.18
2023-05-09T14:15:50.169Z,3.67
2023-05-09T14:18:39.045Z,3.17
2023-05-09T14:21:29.265Z,5.03
2023-05-09T14:24:18.389Z,6.75
2023-05-09T14:27:07.245Z,2.65
2023-05-09T14:29:56.360Z,2.22
2023-05-09T14:32:45.102Z,3.45
2023-05-09T14:35:34.655Z,3.65
2023-05-09T14:38:24.772Z,4.85
2023-05-09T14:41:14.493Z,3.00
2023-05-09T14:44:03.723Z,3.53
2023-05-09T14:46:52.844Z,2.22
2023-05-09T14:49:42.022Z,5.63
2023-05-09T14:52:30.993Z,4.07
2023-05-09T14:55:23.187Z,5.50
2023-05-09T14:58:13.541Z,4.10
2023-05-09T15:01:02.669Z,3.83
2023-05-09T15:03:51.405Z,4.97
2023-05-09T15:06:41.129Z,4.18
2023-05-09T15:09:29.921Z,3.85
2023-05-09T15:12:20.165Z,3.92
2023-05-09T15:15:17.076Z,3.58
2023-05-09T15:18:06.030Z,3.65
2023-05-09T15:20:54.835Z,4.32
2023-05-09T15:23:43.539Z,3.22
2023-05-09T15:26:32.439Z,5.93
2023-05-09T15:29:22.822Z,3.15
2023-05-09T15:32:11.578Z,3.28
2023-05-09T15:35:00.434Z,5.32
2023-05-09T15:37:49.746Z,2.90
2023-05-09T15:40:38.891Z,5.28
2023-05-09T15:43:27.800Z,5.80
2023-05-09T15:46:18.201Z,6.13
2023-05-09T15:49:07.065Z,5.85
2023-05-09T15:51:55.875Z,3.45
2023-05-09T15:54:45.390Z,3.50
2023-05-09T15:57:34.401Z,4.63
2023-05-09T16:00:23.592Z,4.40
2023-05-09T16:03:13.997Z,3.72
2023-05-09T16:06:03.404Z,4.85
2023-05-09T16:08:52.174Z,4.25
2023-05-09T16:11:41.500Z,6.18
2023-05-09T16:14:30.457Z,4.28
2023-05-09T16:17:19.757Z,4.65
2023-05-09T16:20:13.893Z,5.40
2023-05-09T16:23:03.145Z,4.40
2023-05-09T16:25:51.988Z,4.43
2023-05-09T16:28:40.973Z,6.45
2023-05-09T16:31:32.165Z,8.70
2023-05-09T16:34:22.060Z,3.17
2023-05-09T16:37:12.541Z,5.35
2023-05-09T16:40:01.616Z,2.60
2023-05-09T16:42:50.673Z,5.70
2023-05-09T16:45:39.512Z,4.20
2023-05-09T16:48:30.000Z,3.28
2023-05-09T16:51:19.188Z,3.10
2023-05-09T16:54:09.626Z,5.85
2023-05-09T16:56:58.438Z,3.88
2023-05-09T16:59:47.602Z,3.33
2023-05-09T17:02:37.262Z,3.95
2023-05-09T17:05:26.315Z,2.78
2023-05-09T17:08:15.359Z,5.13
2023-05-09T17:11:06.665Z,3.58
2023-05-09T17:13:55.385Z,3.03
2023-05-09T17:16:44.494Z,3.05
2023-05-09T17:19:34.787Z,7.47
2023-05-09T17:22:23.579Z,3.40
2023-05-09T17:25:12.618Z,5.80
2023-05-09T17:28:03.189Z,4.30
2023-05-09T17:30:51.961Z,4.05
2023-05-09T17:33:41.871Z,5.50
2023-05-09T17:36:31.993Z,4.13
2023-05-09T17:39:20.797Z,6.30
2023-05-09T17:42:10.694Z,4.78
2023-05-09T17:45:02.307Z,6.20
2023-05-09T17:47:51.151Z,4.30
2023-05-09T17:50:39.897Z,3.38
2023-05-09T17:53:28.557Z,6.38
2023-05-09T17:56:17.420Z,8.85
2023-05-09T17:59:06.779Z,7.70
2023-05-09T18:01:57.411Z,10.43
2023-05-09T18:04:46.608Z,7.25
2023-05-09T18:07:35.415Z,5.68
2023-05-09T18:10:24.310Z,8.63
2023-05-09T18:13:14.016Z,6.63
2023-05-09T18:16:03.384Z,7.70
2023-05-09T18:18:53.806Z,8.85
2023-05-09T18:21:42.544Z,5.85
2023-05-09T18:24:31.677Z,6.28
2023-05-09T18:27:20.487Z,6.70
2023-05-09T18:30:10.524Z,7.40
2023-05-09T18:33:01.714Z,5.05
2023-05-09T18:35:52.080Z,4.85
2023-05-09T18:38:41.678Z,5.47
2023-05-09T18:41:32.057Z,5.57
2023-05-09T18:44:20.963Z,6.60
2023-05-09T18:47:09.944Z,7.00
2023-05-09T18:50:01.742Z,12.18
2023-05-09T18:52:52.794Z,5.80
2023-05-09T18:55:42.890Z,7.38
2023-05-09T18:58:32.447Z,6.20
2023-05-09T19:01:21.519Z,10.02
2023-05-09T19:04:10.414Z,6.10
2023-05-09T19:07:00.092Z,7.65
2023-05-09T19:09:50.689Z,5.70
2023-05-09T19:12:39.482Z,7.95
2023-05-09T19:15:29.702Z,7.50
2023-05-09T19:18:18.489Z,8.23
2023-05-09T19:21:07.361Z,7.60
2023-05-09T19:23:56.382Z,10.90
2023-05-09T19:26:46.603Z,10.88
2023-05-09T19:29:35.400Z,13.32
2023-05-09T19:32:24.226Z,14.13
2023-05-09T19:35:13.093Z,13.15
2023-05-09T19:38:02.352Z,12.70
2023-05-09T19:40:51.344Z,12.68
2023-05-09T19:43:41.538Z,13.43
2023-05-09T19:46:30.464Z,12.52
2023-05-09T19:49:19.540Z,9.23
2023-05-09T19:52:08.455Z,9.95
2023-05-09T19:54:57.159Z,11.07
2023-05-09T19:57:46.106Z,11.45
2023-05-09T20:00:38.880Z,11.13
2023-05-09T20:03:27.864Z,10.85
2023-05-09T20:06:16.836Z,10.63
2023-05-09T20:09:05.796Z,12.57
2023-05-09T20:11:54.490Z,9.95
2023-05-09T20:14:44.473Z,10.07
2023-05-09T20:17:34.871Z,14.68
2023-05-09T20:20:23.804Z,13.45
2023-05-09T20:23:12.659Z,10.98
2023-05-09T20:26:01.550Z,10.27
2023-05-09T20:28:50.481Z,9.48
2023-05-09T20:31:42.406Z,19.05
2023-05-09T20:34:32.803Z,14.27
2023-05-09T20:37:21.568Z,12.32
2023-05-09T20:40:11.214Z,13.43
2023-05-09T20:43:00.436Z,14.57
2023-05-09T20:45:50.205Z,14.80
2023-05-09T20:48:39.399Z,14.90
2023-05-09T20:51:30.230Z,14.80
2023-05-09T20:54:19.308Z,15.48
2023-05-09T20:57:08.274Z,14.82
2023-05-09T20:59:57.087Z,22.08
2023-05-09T21:02:46.094Z,20.08
2023-05-09T21:05:34.837Z,22.77
2023-05-09T21:08:26.474Z,19.40
2023-05-09T21:11:15.590Z,20.00
2023-05-09T21:14:04.469Z,20.55
2023-05-09T21:16:55.147Z,21.35
2023-05-09T21:19:44.171Z,20.48
2023-05-09T21:22:33.216Z,20.23
2023-05-09T21:25:23.549Z,20.70
2023-05-09T21:28:14.568Z,18.52
2023-05-09T21:31:03.540Z,19.60
2023-05-09T21:33:52.526Z,18.35
2023-05-09T21:36:42.312Z,19.35
2023-05-09T21:39:33.322Z,18.23
2023-05-09T21:42:24.189Z,14.00
2023-05-09T21:45:13.152Z,16.60
2023-05-09T21:48:02.353Z,14.63
2023-05-09T21:50:51.181Z,16.38
2023-05-09T21:53:39.977Z,21.33
2023-05-09T21:56:28.789Z,14.55
2023-05-09T21:59:20.867Z,15.75
2023-05-09T22:02:09.736Z,17.52
2023-05-09T22:04:58.681Z,17.88
2023-05-09T22:07:47.494Z,15.05
2023-05-09T22:10:37.846Z,15.88
2023-05-09T22:13:29.012Z,16.40
2023-05-09T22:16:19.515Z,16.35
2023-05-09T22:19:08.529Z,12.40
2023-05-09T22:21:57.420Z,12.38
2023-05-09T22:24:46.304Z,14.57
2023-05-09T22:27:35.163Z,13.45
2023-05-09T22:30:24.233Z,12.93
2023-05-09T22:33:14.357Z,12.07
2023-05-09T22:36:03.453Z,16.60
2023-05-09T22:38:52.178Z,10.88
2023-05-09T22:41:40.881Z,13.45
2023-05-09T22:44:30.967Z,12.65
2023-05-09T22:47:19.655Z,11.95
2023-05-09T22:50:12.257Z,13.23
2023-05-09T22:53:01.142Z,13.13
2023-05-09T22:55:49.864Z,12.13
2023-05-09T22:58:38.517Z,11.27
2023-05-09T23:01:28.581Z,11.38
2023-05-09T23:04:17.493Z,13.88
2023-05-09T23:07:07.882Z,14.60
2023-05-09T23:09:56.667Z,11.63
2023-05-09T23:12:45.507Z,15.55
2023-05-09T23:15:34.744Z,14.38
2023-05-09T23:18:24.034Z,13.68
2023-05-09T23:21:13.017Z,12.27
2023-05-09T23:24:03.480Z,11.98
2023-05-09T23:26:52.228Z,14.05
2023-05-09T23:29:41.009Z,15.00
2023-05-09T23:32:29.708Z,13.93
2023-05-09T23:35:19.308Z,16.08
2023-05-09T23:38:08.151Z,14.82
2023-05-09T23:41:00.254Z,17.48
2023-05-09T23:43:49.360Z,12.02
2023-05-09T23:46:38.389Z,11.75
2023-05-09T23:49:27.393Z,15.18
2023-05-09T23:52:16.522Z,14.32
2023-05-09T23:55:05.995Z,13.98
2023-05-09T23:57:56.505Z,19.40
